createdAt,value
2017-10-01T00:01:52.690Z,2.23
2017-10-01T00:04:21.001Z,1.70
2017-10-01T00:06:49.242Z,2.00
2017-10-01T00:09:17.481Z,1.97
2017-10-01T00:11:45.749Z,2.07
2017-10-01T00:14:13.992Z,1.97
2017-10-01T00:16:42.247Z,2.47
2017-10-01T00:19:11.279Z,3.37
2017-10-01T00:21:39.517Z,4.37
2017-10-01T00:24:08.533Z,3.40
2017-10-01T00:26:36.861Z,2.60
2017-10-01T00:29:05.098Z,2.10
2017-10-01T00:31:33.642Z,2.83
2017-10-01T00:34:02.673Z,2.40
2017-10-01T00:36:30.913Z,2.93
2017-10-01T00:38:59.937Z,1.97
2017-10-01T00:41:28.205Z,3.80
2017-10-01T00:43:56.450Z,3.07
2017-10-01T00:46:25.453Z,3.43
2017-10-01T00:48:54.798Z,3.03
2017-10-01T00:51:23.029Z,3.40
2017-10-01T00:53:52.050Z,3.10
2017-10-01T00:56:20.321Z,3.13
2017-10-01T00:58:48.573Z,3.27
2017-10-01T01:01:16.815Z,4.07
2017-10-01T01:03:45.074Z,2.90
2017-10-01T01:06:13.313Z,3.60
2017-10-01T01:08:41.557Z,4.00
2017-10-01T01:11:10.205Z,3.20
2017-10-01T01:13:38.440Z,4.13
2017-10-01T01:16:07.461Z,3.27
2017-10-01T01:18:35.726Z,3.53
2017-10-01T01:21:03.965Z,4.30
2017-10-01T01:23:32.226Z,4.20
2017-10-01T01:26:00.490Z,2.87
2017-10-01T01:28:28.733Z,2.80
2017-10-01T01:30:56.965Z,3.40
2017-10-01T01:33:26.221Z,3.00
2017-10-01T01:35:54.465Z,3.13
2017-10-01T01:38:22.705Z,3.90
2017-10-01T01:40:50.961Z,3.70
2017-10-01T01:43:19.202Z,4.07
2017-10-01T01:45:47.450Z,3.60
2017-10-01T01:48:15.709Z,4.10
2017-10-01T01:50:43.953Z,4.90
2017-10-01T01:53:12.198Z,4.70
2017-10-01T01:55:40.522Z,5.43
2017-10-01T01:58:08.766Z,6.60
2017-10-01T02:00:37.777Z,7.00
2017-10-01T02:03:06.045Z,8.30
2017-10-01T02:05:34.290Z,7.97
2017-10-01T02:08:02.538Z,8.17
2017-10-01T02:10:30.823Z,7.70
2017-10-01T02:12:59.041Z,9.50
2017-10-01T02:15:27.289Z,9.80
2017-10-01T02:17:55.624Z,9.47
2017-10-01T02:20:23.873Z,10.83
2017-10-01T02:22:52.888Z,11.07
2017-10-01T02:25:21.161Z,10.53
2017-10-01T02:27:50.178Z,11.57
2017-10-01T02:30:18.431Z,11.40
2017-10-01T02:32:46.712Z,12.70
2017-10-01T02:35:15.370Z,11.90
2017-10-01T02:37:43.617Z,12.40
2017-10-01T02:40:11.943Z,12.57
2017-10-01T02:42:40.191Z,13.73
2017-10-01T02:45:09.206Z,13.87
2017-10-01T02:47:37.493Z,13.43
2017-10-01T02:50:05.745Z,15.60
2017-10-01T02:52:34.028Z,15.03
2017-10-01T02:55:03.058Z,12.03
2017-10-01T02:57:31.311Z,13.53
2017-10-01T02:59:59.557Z,13.37
2017-10-01T03:02:28.012Z,12.00
2017-10-01T03:04:56.268Z,13.13
2017-10-01T03:07:24.578Z,13.67
2017-10-01T03:09:52.853Z,13.10
2017-10-01T03:12:21.219Z,13.57
2017-10-01T03:14:49.458Z,13.93
2017-10-01T03:17:17.756Z,13.37
2017-10-01T03:19:46.013Z,14.73
2017-10-01T03:22:14.261Z,15.07
2017-10-01T03:24:43.601Z,11.33
2017-10-01T03:27:11.860Z,14.43
2017-10-01T03:29:40.118Z,13.60
2017-10-01T03:32:08.389Z,14.20
2017-10-01T03:34:37.411Z,14.37
2017-10-01T03:37:05.857Z,16.13
2017-10-01T03:39:34.897Z,14.63
2017-10-01T03:42:03.154Z,16.73
2017-10-01T03:44:31.405Z,16.00
2017-10-01T03:46:59.856Z,18.00
2017-10-01T03:49:28.101Z,16.50
2017-10-01T03:51:56.355Z,18.70
2017-10-01T03:54:24.692Z,17.20
2017-10-01T03:56:52.929Z,17.60
2017-10-01T03:59:21.181Z,17.23
2017-10-01T04:01:49.845Z,15.60
2017-10-01T04:04:18.094Z,18.60
2017-10-01T04:06:46.341Z,18.73
2017-10-01T04:09:14.794Z,16.80
2017-10-01T04:11:43.813Z,13.33
2017-10-01T04:14:12.065Z,15.40
2017-10-01T04:16:41.361Z,16.40
2017-10-01T04:19:10.377Z,15.40
2017-10-01T04:21:38.630Z,14.60
2017-10-01T04:24:07.674Z,13.10
2017-10-01T04:26:35.930Z,12.00
2017-10-01T04:29:04.177Z,15.23
2017-10-01T04:31:33.833Z,16.43
2017-10-01T04:34:02.108Z,17.37
2017-10-01T04:36:30.353Z,17.80
2017-10-01T04:38:58.954Z,17.07
2017-10-01T04:41:27.211Z,17.83
2017-10-01T04:43:56.226Z,15.87
2017-10-01T04:46:24.501Z,16.77
2017-10-01T04:48:52.757Z,16.57
2017-10-01T04:51:21.770Z,16.63
2017-10-01T04:53:50.143Z,14.57
2017-10-01T04:56:18.392Z,14.93
2017-10-01T04:58:46.644Z,15.17
2017-10-01T05:01:14.916Z,13.37
2017-10-01T05:03:43.166Z,15.70
2017-10-01T05:06:11.415Z,15.53
2017-10-01T05:08:40.459Z,15.00
2017-10-01T05:11:08.705Z,15.40
2017-10-01T05:13:36.958Z,15.40
2017-10-01T05:16:06.298Z,15.97
2017-10-01T05:18:34.561Z,16.80
2017-10-01T05:21:03.578Z,15.87
2017-10-01T05:23:31.848Z,16.50
2017-10-01T05:26:00.101Z,17.57
2017-10-01T05:28:28.350Z,15.70
2017-10-01T05:30:57.395Z,16.60
2017-10-01T05:33:25.645Z,17.10
2017-10-01T05:35:53.902Z,17.77
2017-10-01T05:38:22.368Z,15.30
2017-10-01T05:40:50.870Z,14.20
2017-10-01T05:43:19.885Z,14.20
2017-10-01T05:45:48.241Z,15.00
2017-10-01T05:48:17.257Z,15.20
2017-10-01T05:50:45.518Z,10.77
2017-10-01T05:53:13.789Z,13.17
2017-10-01T05:55:42.840Z,15.13
2017-10-01T05:58:11.085Z,15.60
2017-10-01T06:00:39.561Z,14.93
2017-10-01T06:03:07.817Z,16.80
2017-10-01T06:05:36.833Z,15.80
2017-10-01T06:08:05.110Z,15.53
2017-10-01T06:10:33.356Z,15.90
2017-10-01T06:13:01.612Z,15.93
2017-10-01T06:15:29.885Z,15.60
2017-10-01T06:17:58.134Z,14.30
2017-10-01T06:20:26.380Z,15.50
2017-10-01T06:22:54.786Z,16.23
2017-10-01T06:25:23.043Z,14.30
2017-10-01T06:27:51.293Z,13.63
2017-10-01T06:30:20.333Z,14.17
2017-10-01T06:32:48.592Z,13.40
2017-10-01T06:35:16.838Z,12.73
2017-10-01T06:37:45.883Z,10.53
2017-10-01T06:40:14.136Z,12.77
2017-10-01T06:42:42.530Z,13.77
2017-10-01T06:45:11.225Z,11.67
2017-10-01T06:47:39.470Z,10.53
2017-10-01T06:50:07.734Z,11.67
2017-10-01T06:52:36.773Z,11.33
2017-10-01T06:55:05.034Z,13.57
2017-10-01T06:57:33.290Z,14.00
2017-10-01T07:00:01.569Z,15.80
2017-10-01T07:02:29.823Z,16.07
2017-10-01T07:04:58.074Z,18.03
2017-10-01T07:07:26.632Z,17.23
2017-10-01T07:09:54.886Z,17.57
2017-10-01T07:12:23.138Z,16.23
2017-10-01T07:14:51.418Z,16.73
2017-10-01T07:17:21.358Z,16.83
2017-10-01T07:19:49.613Z,17.10
2017-10-01T07:22:17.888Z,12.47
2017-10-01T07:24:46.134Z,15.80
2017-10-01T07:27:14.391Z,15.50
2017-10-01T07:29:42.950Z,14.70
2017-10-01T07:32:11.242Z,13.77
2017-10-01T07:34:39.489Z,12.47
2017-10-01T07:37:07.771Z,15.03
2017-10-01T07:39:36.778Z,11.40
2017-10-01T07:42:05.031Z,12.03
2017-10-01T07:44:33.336Z,13.80
2017-10-01T07:47:01.581Z,10.67
2017-10-01T07:49:30.608Z,12.00
2017-10-01T07:51:58.939Z,12.47
2017-10-01T07:54:27.181Z,12.43
2017-10-01T07:56:55.453Z,13.10
2017-10-01T07:59:23.744Z,9.00
2017-10-01T08:01:51.990Z,12.17
2017-10-01T08:04:20.241Z,10.97
2017-10-01T08:06:49.273Z,9.90
2017-10-01T08:09:17.530Z,10.03
2017-10-01T08:11:45.777Z,10.50
2017-10-01T08:14:15.338Z,10.10
2017-10-01T08:16:43.577Z,8.97
2017-10-01T08:19:11.833Z,11.13
2017-10-01T08:21:40.155Z,9.37
2017-10-01T08:24:08.402Z,8.53
2017-10-01T08:26:37.418Z,9.40
2017-10-01T08:29:05.694Z,8.80
2017-10-01T08:31:33.949Z,10.20
2017-10-01T08:34:03.378Z,10.70
2017-10-01T08:36:32.197Z,9.10
2017-10-01T08:39:00.476Z,10.07
2017-10-01T08:41:28.716Z,9.83
2017-10-01T08:43:56.991Z,9.03
2017-10-01T08:46:25.362Z,7.90
2017-10-01T08:48:53.621Z,8.50
2017-10-01T08:51:23.054Z,6.90
2017-10-01T08:53:51.294Z,6.33
2017-10-01T08:56:19.547Z,7.10
2017-10-01T08:58:47.945Z,7.10
2017-10-01T09:01:16.193Z,6.40
2017-10-01T09:03:44.478Z,5.90
2017-10-01T09:06:12.746Z,7.30
2017-10-01T09:08:41.001Z,6.97
2017-10-01T09:11:09.246Z,7.00
2017-10-01T09:13:38.281Z,7.00
2017-10-01T09:16:06.538Z,7.23
2017-10-01T09:18:34.782Z,6.70
2017-10-01T09:21:03.970Z,6.07
2017-10-01T09:23:32.209Z,6.10
2017-10-01T09:26:00.462Z,6.40
2017-10-01T09:28:28.800Z,6.20
2017-10-01T09:30:57.038Z,7.20
2017-10-01T09:33:25.277Z,5.77
2017-10-01T09:35:53.541Z,5.60
2017-10-01T09:38:22.554Z,5.70
2017-10-01T09:40:50.886Z,5.73
2017-10-01T09:43:19.578Z,4.87
2017-10-01T09:45:47.817Z,5.40
2017-10-01T09:48:17.005Z,5.20
2017-10-01T09:50:45.280Z,5.47
2017-10-01T09:53:13.517Z,5.07
2017-10-01T09:55:42.529Z,5.30
2017-10-01T09:58:11.588Z,4.43
2017-10-01T10:00:39.834Z,4.17
2017-10-01T10:03:08.069Z,3.87
2017-10-01T10:05:37.617Z,3.40
2017-10-01T10:08:05.862Z,4.20
2017-10-01T10:10:34.102Z,5.00
2017-10-01T10:13:02.400Z,5.23
2017-10-01T10:15:31.417Z,5.93
2017-10-01T10:17:59.667Z,4.20
2017-10-01T10:20:27.930Z,4.50
2017-10-01T10:22:56.174Z,3.67
2017-10-01T10:25:24.565Z,3.73
2017-10-01T10:27:53.333Z,3.97
2017-10-01T10:30:21.579Z,3.40
2017-10-01T10:32:49.818Z,3.67
2017-10-01T10:35:20.265Z,3.50
2017-10-01T10:37:49.277Z,3.30
2017-10-01T10:40:18.286Z,3.30
2017-10-01T10:42:46.562Z,3.20
2017-10-01T10:45:14.801Z,3.50
2017-10-01T10:47:43.054Z,3.47
2017-10-01T10:50:12.125Z,3.63
2017-10-01T10:52:40.370Z,4.27
2017-10-01T10:55:08.607Z,3.27
2017-10-01T10:57:36.873Z,3.17
2017-10-01T11:00:05.109Z,2.63
2017-10-01T11:02:33.362Z,2.50
2017-10-01T11:05:01.622Z,2.63
2017-10-01T11:07:29.862Z,2.60
2017-10-01T11:09:58.105Z,2.40
2017-10-01T11:12:26.617Z,2.10
2017-10-01T11:14:55.773Z,2.37
2017-10-01T11:17:24.020Z,2.17
2017-10-01T11:19:52.287Z,2.07
2017-10-01T11:22:20.525Z,1.70
2017-10-01T11:24:48.786Z,1.63
2017-10-01T11:27:17.814Z,2.20
2017-10-01T11:29:46.050Z,1.97
2017-10-01T11:32:14.294Z,1.97
2017-10-01T11:34:42.618Z,1.87
2017-10-01T11:37:10.861Z,1.90
2017-10-01T11:39:39.102Z,2.30
2017-10-01T11:42:07.393Z,2.40
2017-10-01T11:44:35.618Z,2.33
2017-10-01T11:47:04.622Z,2.60
2017-10-01T11:49:32.890Z,2.13
2017-10-01T11:52:02.125Z,2.13
2017-10-01T11:54:30.370Z,2.00
2017-10-01T11:56:58.698Z,2.30
2017-10-01T11:59:26.942Z,2.00
2017-10-01T12:01:55.186Z,2.30
2017-10-01T12:04:23.450Z,1.80
2017-10-01T12:06:52.458Z,2.10
2017-10-01T12:09:21.458Z,2.10
2017-10-01T12:11:49.810Z,1.70
2017-10-01T12:14:18.030Z,1.83
2017-10-01T12:16:46.282Z,2.80
2017-10-01T12:19:15.621Z,2.60
2017-10-01T12:21:43.866Z,2.37
2017-10-01T12:24:12.170Z,3.37
2017-10-01T12:26:40.428Z,2.43
2017-10-01T12:29:08.692Z,2.37
2017-10-01T12:31:37.015Z,1.97
2017-10-01T12:34:05.265Z,2.30
2017-10-01T12:36:33.510Z,2.10
2017-10-01T12:39:01.751Z,2.30
2017-10-01T12:41:30.201Z,2.27
2017-10-01T12:43:58.443Z,2.03
2017-10-01T12:46:26.685Z,2.53
2017-10-01T12:48:54.954Z,2.07
2017-10-01T12:51:23.185Z,2.20
2017-10-01T12:53:51.488Z,2.50
2017-10-01T12:56:19.758Z,2.60
2017-10-01T12:58:47.993Z,2.33
2017-10-01T13:01:22.080Z,2.10
2017-10-01T13:03:50.551Z,2.30
2017-10-01T13:06:19.974Z,2.47
2017-10-01T13:08:48.265Z,2.20
2017-10-01T13:11:16.492Z,2.60
2017-10-01T13:13:44.742Z,2.00
2017-10-01T13:16:13.201Z,2.57
2017-10-01T13:18:41.461Z,2.00
2017-10-01T13:21:10.863Z,2.00
2017-10-01T13:23:39.517Z,1.93
2017-10-01T13:26:07.759Z,2.10
2017-10-01T13:28:36.921Z,2.13
2017-10-01T13:31:05.202Z,2.10
2017-10-01T13:33:33.445Z,2.50
2017-10-01T13:36:01.756Z,1.70
2017-10-01T13:38:30.153Z,2.50
2017-10-01T13:40:58.386Z,1.80
2017-10-01T13:43:26.638Z,1.73
2017-10-01T13:45:55.185Z,1.53
2017-10-01T13:48:23.641Z,2.00
2017-10-01T13:50:51.883Z,2.20
2017-10-01T13:53:20.188Z,1.70
2017-10-01T13:55:49.147Z,1.40
2017-10-01T13:58:17.381Z,1.83
2017-10-01T14:00:45.641Z,2.20
2017-10-01T14:03:13.901Z,1.40
2017-10-01T14:05:44.863Z,2.20
2017-10-01T14:08:13.331Z,1.87
2017-10-01T14:10:42.218Z,1.33
2017-10-01T14:13:10.462Z,1.43
2017-10-01T14:15:38.905Z,2.50
2017-10-01T14:18:07.146Z,1.50
2017-10-01T14:20:37.489Z,1.87
2017-10-01T14:23:05.909Z,2.00
2017-10-01T14:25:35.060Z,1.57
2017-10-01T14:28:03.302Z,1.83
2017-10-01T14:30:38.284Z,1.57
2017-10-01T14:33:07.300Z,1.70
2017-10-01T14:35:35.766Z,1.90
2017-10-01T14:38:04.094Z,2.10
2017-10-01T14:40:32.342Z,1.73
2017-10-01T14:43:01.394Z,1.97
2017-10-01T14:45:29.656Z,2.10
2017-10-01T14:47:57.922Z,1.73
2017-10-01T14:50:26.178Z,2.00
2017-10-01T14:52:56.017Z,1.70
2017-10-01T14:55:24.635Z,1.93
2017-10-01T14:57:52.996Z,1.50
2017-10-01T15:00:22.555Z,1.60
2017-10-01T15:02:50.881Z,2.00
2017-10-01T15:05:20.495Z,1.60
2017-10-01T15:07:48.765Z,1.80
2017-10-01T15:10:17.058Z,2.33
2017-10-01T15:12:45.286Z,1.80
2017-10-01T15:15:13.618Z,2.00
2017-10-01T15:17:42.388Z,1.90
2017-10-01T15:20:10.641Z,1.53
2017-10-01T15:22:38.926Z,1.83
2017-10-01T15:25:07.174Z,1.70
2017-10-01T15:27:35.438Z,1.60
2017-10-01T15:30:04.475Z,1.50
2017-10-01T15:32:32.714Z,2.37
2017-10-01T15:35:00.953Z,1.63
2017-10-01T15:37:29.465Z,1.40
2017-10-01T15:39:57.721Z,1.70
2017-10-01T15:42:25.992Z,1.63
2017-10-01T15:44:54.269Z,1.80
2017-10-01T15:47:23.553Z,1.87
2017-10-01T15:49:51.766Z,2.00
2017-10-01T15:52:20.889Z,2.10
2017-10-01T15:54:50.022Z,2.10
2017-10-01T15:57:18.257Z,2.10
2017-10-01T15:59:46.577Z,2.00
2017-10-01T16:02:14.814Z,1.77
2017-10-01T16:04:43.058Z,1.83
2017-10-01T16:07:12.195Z,1.67
2017-10-01T16:09:40.622Z,1.63
2017-10-01T16:12:08.995Z,2.30
2017-10-01T16:14:37.293Z,2.00
2017-10-01T16:17:05.538Z,2.70
2017-10-01T16:19:34.017Z,1.80
2017-10-01T16:22:04.535Z,2.00
2017-10-01T16:24:34.822Z,2.40
2017-10-01T16:27:03.085Z,3.23
2017-10-01T16:29:31.484Z,3.07
2017-10-01T16:31:59.759Z,3.20
2017-10-01T16:34:28.064Z,3.67
2017-10-01T16:36:56.330Z,3.80
2017-10-01T16:39:24.679Z,3.87
2017-10-01T16:41:53.686Z,4.10
2017-10-01T16:44:22.004Z,3.53
2017-10-01T16:46:50.245Z,3.17
2017-10-01T16:49:18.490Z,3.30
2017-10-01T16:51:47.687Z,4.60
2017-10-01T16:54:15.918Z,3.33
2017-10-01T16:56:44.211Z,3.73
2017-10-01T16:59:12.492Z,3.80
2017-10-01T17:01:40.726Z,4.30
2017-10-01T17:04:08.987Z,4.00
2017-10-01T17:06:39.542Z,4.70
2017-10-01T17:09:07.856Z,3.73
2017-10-01T17:11:37.244Z,4.00
2017-10-01T17:14:05.506Z,5.03
2017-10-01T17:16:33.906Z,3.53
2017-10-01T17:19:02.295Z,4.37
2017-10-01T17:21:32.101Z,4.00
2017-10-01T17:24:00.473Z,4.40
2017-10-01T17:26:28.855Z,4.10
2017-10-01T17:28:57.213Z,4.10
2017-10-01T17:31:26.369Z,5.37
2017-10-01T17:33:55.437Z,4.63
2017-10-01T17:36:23.791Z,4.40
2017-10-01T17:38:53.207Z,4.70
2017-10-01T17:41:21.438Z,4.90
2017-10-01T17:43:49.702Z,4.93
2017-10-01T17:46:17.945Z,4.13
2017-10-01T17:48:46.190Z,5.07
2017-10-01T17:51:14.691Z,4.10
2017-10-01T17:53:42.977Z,4.80
2017-10-01T17:56:11.662Z,4.30
2017-10-01T17:58:39.971Z,4.67
2017-10-01T18:01:08.986Z,4.23
2017-10-01T18:03:37.421Z,4.90
2017-10-01T18:06:05.693Z,5.80
2017-10-01T18:08:33.942Z,5.10
2017-10-01T18:11:02.237Z,6.27
2017-10-01T18:13:31.015Z,6.17
2017-10-01T18:15:59.259Z,5.40
2017-10-01T18:18:27.544Z,5.20
2017-10-01T18:20:55.821Z,6.10
2017-10-01T18:23:24.069Z,10.17
2017-10-01T18:25:52.334Z,10.20
2017-10-01T18:28:21.382Z,7.80
2017-10-01T18:30:49.695Z,6.33
2017-10-01T18:33:17.951Z,6.70
2017-10-01T18:35:46.426Z,5.80
2017-10-01T18:38:14.669Z,5.50
2017-10-01T18:40:42.917Z,5.80
2017-10-01T18:43:11.191Z,5.37
2017-10-01T18:45:39.440Z,5.63
2017-10-01T18:48:07.834Z,5.77
2017-10-01T18:50:36.097Z,5.37
2017-10-01T18:53:04.345Z,6.17
2017-10-01T18:55:32.589Z,6.00
2017-10-01T18:58:01.031Z,6.20
2017-10-01T19:00:30.500Z,6.10
2017-10-01T19:02:58.746Z,4.97
2017-10-01T19:05:27.785Z,4.40
2017-10-01T19:07:56.133Z,4.60
2017-10-01T19:10:24.379Z,5.23
2017-10-01T19:12:52.841Z,4.50
2017-10-01T19:15:21.061Z,4.53
2017-10-01T19:17:49.308Z,5.80
2017-10-01T19:20:18.182Z,5.80
2017-10-01T19:22:50.458Z,5.33
2017-10-01T19:25:18.693Z,6.13
2017-10-01T19:27:46.999Z,6.50
2017-10-01T19:30:15.245Z,7.67
2017-10-01T19:32:43.489Z,7.07
2017-10-01T19:35:11.760Z,6.63
2017-10-01T19:37:40.010Z,9.30
2017-10-01T19:40:08.257Z,9.27
2017-10-01T19:42:37.017Z,8.77
2017-10-01T19:45:06.033Z,7.47
2017-10-01T19:47:34.289Z,7.73
2017-10-01T19:50:03.342Z,7.93
2017-10-01T19:52:31.594Z,6.50
2017-10-01T19:54:59.843Z,6.97
2017-10-01T19:57:29.362Z,11.90
2017-10-01T19:59:57.615Z,6.33
2017-10-01T20:02:25.863Z,5.90
2017-10-01T20:04:54.306Z,7.07
2017-10-01T20:07:22.566Z,6.10
2017-10-01T20:09:50.834Z,6.60
2017-10-01T20:12:19.104Z,6.10
2017-10-01T20:14:47.354Z,6.33
2017-10-01T20:17:15.597Z,6.63
2017-10-01T20:19:43.873Z,6.10
2017-10-01T20:22:12.327Z,6.47
2017-10-01T20:24:40.582Z,6.50
2017-10-01T20:27:09.825Z,6.03
2017-10-01T20:29:38.069Z,6.33
2017-10-01T20:32:06.326Z,6.00
2017-10-01T20:34:35.369Z,5.93
2017-10-01T20:37:03.613Z,6.17
2017-10-01T20:39:32.613Z,6.17
2017-10-01T20:42:00.882Z,6.53
2017-10-01T20:44:29.966Z,6.10
2017-10-01T20:46:58.222Z,5.60
2017-10-01T20:49:26.546Z,7.10
2017-10-01T20:51:54.818Z,7.63
2017-10-01T20:54:23.067Z,8.00
2017-10-01T20:56:51.333Z,6.30
2017-10-01T20:59:20.045Z,6.30
2017-10-01T21:01:53.337Z,6.80
2017-10-01T21:04:22.380Z,6.30
2017-10-01T21:06:50.638Z,6.93
2017-10-01T21:09:18.881Z,6.93
2017-10-01T21:11:48.438Z,7.50
2017-10-01T21:14:16.840Z,7.53
2017-10-01T21:16:45.090Z,6.70
2017-10-01T21:19:13.513Z,6.87
2017-10-01T21:21:41.754Z,7.63
2017-10-01T21:24:10.002Z,7.47
2017-10-01T21:26:38.269Z,6.83
2017-10-01T21:29:06.513Z,6.93
2017-10-01T21:31:34.755Z,5.90
2017-10-01T21:34:03.270Z,6.43
2017-10-01T21:36:31.532Z,7.30
2017-10-01T21:38:59.777Z,8.50
2017-10-01T21:41:28.046Z,9.00
2017-10-01T21:43:56.293Z,7.33
2017-10-01T21:46:25.294Z,6.93
2017-10-01T21:48:54.330Z,9.07
2017-10-01T21:51:22.573Z,7.37
2017-10-01T21:53:50.813Z,8.30
2017-10-01T21:56:19.142Z,8.10
2017-10-01T21:58:47.385Z,9.10
2017-10-01T22:01:15.978Z,8.70
2017-10-01T22:03:45.014Z,7.00
2017-10-01T22:06:13.265Z,7.23
2017-10-01T22:08:41.526Z,7.70
2017-10-01T22:11:09.793Z,8.03
2017-10-01T22:13:38.811Z,7.43
2017-10-01T22:16:07.058Z,6.63
2017-10-01T22:18:35.594Z,8.40
2017-10-01T22:21:03.830Z,7.67
2017-10-01T22:23:32.841Z,8.93
2017-10-01T22:26:01.104Z,7.87
2017-10-01T22:28:30.109Z,8.47
2017-10-01T22:30:58.354Z,9.50
2017-10-01T22:33:26.630Z,8.17
2017-10-01T22:35:54.875Z,9.07
2017-10-01T22:38:23.122Z,8.67
2017-10-01T22:40:51.662Z,9.20
2017-10-01T22:43:19.912Z,9.63
2017-10-01T22:45:48.152Z,9.37
2017-10-01T22:48:16.434Z,8.70
2017-10-01T22:50:44.676Z,9.73
2017-10-01T22:53:12.933Z,9.20
2017-10-01T22:55:41.229Z,9.33
2017-10-01T22:58:10.244Z,8.83
2017-10-01T23:00:38.489Z,8.87
2017-10-01T23:03:07.654Z,9.70
2017-10-01T23:05:35.901Z,8.60
2017-10-01T23:08:04.154Z,9.37
2017-10-01T23:10:32.434Z,10.37
2017-10-01T23:13:01.458Z,11.97
2017-10-01T23:15:29.706Z,10.27
2017-10-01T23:17:58.742Z,11.13
2017-10-01T23:20:26.992Z,11.40
2017-10-01T23:22:55.258Z,11.50
2017-10-01T23:25:24.597Z,11.60
2017-10-01T23:27:52.850Z,10.93
2017-10-01T23:30:21.119Z,11.30
2017-10-01T23:32:50.613Z,10.30
2017-10-01T23:35:19.634Z,11.47
2017-10-01T23:37:47.886Z,12.30
2017-10-01T23:40:16.926Z,10.40
2017-10-01T23:42:45.174Z,10.87
2017-10-01T23:45:13.425Z,11.10
2017-10-01T23:47:42.761Z,11.90
2017-10-01T23:50:11.014Z,13.77
2017-10-01T23:52:40.025Z,11.67
2017-10-01T23:55:08.301Z,11.50
2017-10-01T23:57:36.553Z,12.40
